createdAt,value
2022-08-17T00:01:03.038Z,5.30
2022-08-17T00:03:44.691Z,6.05
2022-08-17T00:06:37.445Z,5.35
2022-08-17T00:19:01.222Z,6.32
2022-08-17T00:30:59.545Z,5.63
2022-08-17T00:39:39.988Z,5.80
2022-08-17T00:45:21.525Z,5.65
2022-08-17T00:54:47.342Z,5.35
2022-08-17T01:00:38.591Z,5.90
2022-08-17T01:09:42.001Z,5.75
2022-08-17T01:12:17.967Z,5.68
2022-08-17T01:14:54.770Z,6.03
2022-08-17T01:17:29.201Z,5.90
2022-08-17T01:20:02.025Z,4.97
2022-08-17T01:22:38.167Z,5.93
2022-08-17T01:25:15.102Z,5.72
2022-08-17T01:27:55.258Z,5.45
2022-08-17T01:30:56.943Z,5.40
2022-08-17T01:33:27.462Z,5.45
2022-08-17T01:36:06.773Z,5.18
2022-08-17T01:38:42.739Z,5.68
2022-08-17T01:41:17.451Z,5.38
2022-08-17T01:43:54.425Z,5.70
2022-08-17T01:46:33.071Z,5.70
2022-08-17T01:49:09.906Z,5.25
2022-08-17T01:51:44.460Z,5.18
2022-08-17T01:54:20.578Z,5.63
2022-08-17T01:56:56.505Z,5.38
2022-08-17T01:59:34.300Z,5.25
2022-08-17T02:02:09.872Z,5.88
2022-08-17T02:04:45.132Z,5.43
2022-08-17T02:07:20.278Z,5.25
2022-08-17T02:10:01.617Z,5.90
2022-08-17T02:12:39.065Z,5.43
2022-08-17T02:15:15.946Z,4.93
2022-08-17T02:17:54.819Z,5.47
2022-08-17T02:20:41.790Z,5.65
2022-08-17T02:23:19.884Z,5.93
2022-08-17T02:25:59.939Z,5.85
2022-08-17T02:28:36.695Z,5.88
2022-08-17T02:31:15.070Z,5.68
2022-08-17T02:34:00.559Z,5.53
2022-08-17T02:36:40.267Z,5.75
2022-08-17T02:39:25.632Z,6.25
2022-08-17T02:44:40.259Z,5.68
2022-08-17T02:47:18.376Z,5.70
2022-08-17T02:49:56.967Z,5.82
2022-08-17T02:52:42.864Z,6.40
2022-08-17T02:55:23.371Z,5.95
2022-08-17T02:58:04.853Z,5.78
2022-08-17T03:00:41.242Z,5.30
2022-08-17T03:03:16.241Z,6.15
2022-08-17T03:17:51.532Z,5.72
2022-08-17T03:32:57.282Z,5.60
2022-08-17T03:38:39.587Z,5.32
2022-08-17T03:41:35.030Z,6.10
2022-08-17T03:47:38.288Z,5.82
2022-08-17T03:50:50.531Z,5.55
2022-08-17T03:54:03.003Z,6.18
2022-08-17T03:57:19.847Z,5.55
2022-08-17T04:00:15.280Z,6.82
2022-08-17T04:03:15.086Z,5.68
2022-08-17T04:06:02.524Z,5.57
2022-08-17T04:08:40.249Z,6.20
2022-08-17T04:11:14.174Z,5.97
2022-08-17T04:13:51.942Z,5.45
2022-08-17T04:16:26.012Z,6.00
2022-08-17T04:19:01.232Z,6.35
2022-08-17T04:21:37.206Z,5.97
2022-08-17T04:24:25.795Z,5.53
2022-08-17T04:26:58.748Z,6.22
2022-08-17T04:29:54.969Z,5.75
2022-08-17T04:33:04.668Z,5.88
2022-08-17T04:35:18.973Z,5.68
2022-08-17T04:37:55.962Z,5.25
2022-08-17T04:40:48.429Z,6.18
2022-08-17T04:43:34.264Z,6.65
2022-08-17T04:46:13.200Z,6.32
2022-08-17T04:49:00.515Z,5.70
2022-08-17T04:51:35.951Z,5.45
2022-08-17T04:54:11.908Z,5.47
2022-08-17T04:56:47.972Z,6.30
2022-08-17T04:59:22.362Z,5.85
2022-08-17T05:01:57.908Z,5.50
2022-08-17T05:04:35.449Z,5.22
2022-08-17T05:07:08.202Z,5.82
2022-08-17T05:09:43.715Z,5.82
2022-08-17T05:12:17.513Z,5.35
2022-08-17T05:14:52.391Z,5.65
2022-08-17T05:17:29.732Z,5.95
2022-08-17T05:20:03.286Z,5.68
2022-08-17T05:22:37.810Z,5.60
2022-08-17T05:25:12.418Z,6.25
2022-08-17T05:27:53.759Z,5.60
2022-08-17T05:30:30.171Z,5.65
2022-08-17T05:33:03.320Z,6.13
2022-08-17T05:35:38.799Z,6.50
2022-08-17T05:38:13.041Z,5.63
2022-08-17T05:40:46.816Z,5.80
2022-08-17T05:43:25.967Z,5.57
2022-08-17T05:45:58.897Z,5.95
2022-08-17T05:48:35.554Z,6.30
2022-08-17T05:51:19.746Z,6.20
2022-08-17T05:54:17.783Z,6.20
2022-08-17T05:57:13.106Z,5.80
2022-08-17T05:59:55.199Z,5.68
2022-08-17T06:02:32.600Z,5.50
2022-08-17T06:05:05.572Z,5.72
2022-08-17T06:07:35.779Z,5.82
2022-08-17T06:10:28.737Z,5.75
2022-08-17T06:13:31.979Z,6.05
2022-08-17T06:16:34.853Z,5.03
2022-08-17T06:19:30.743Z,5.38
2022-08-17T06:22:38.239Z,5.03
2022-08-17T06:25:32.062Z,5.65
2022-08-17T06:28:26.960Z,5.57
2022-08-17T06:31:23.067Z,5.85
2022-08-17T06:40:31.905Z,5.63
2022-08-17T06:43:31.017Z,5.07
2022-08-17T06:50:09.101Z,5.10
2022-08-17T06:53:11.075Z,5.45
2022-08-17T07:05:15.909Z,4.95
2022-08-17T07:08:23.441Z,4.88
2022-08-17T07:11:17.675Z,4.97
2022-08-17T07:14:29.059Z,5.05
2022-08-17T07:17:47.803Z,4.17
2022-08-17T07:20:55.149Z,3.95
2022-08-17T07:23:54.854Z,4.33
2022-08-17T07:26:57.458Z,4.15
2022-08-17T07:30:00.454Z,3.70
2022-08-17T07:33:03.691Z,3.15
2022-08-17T07:38:51.553Z,3.83
2022-08-17T07:41:59.141Z,3.30
2022-08-17T07:50:51.516Z,3.17
2022-08-17T07:53:43.569Z,3.30
2022-08-17T07:56:41.952Z,2.90
2022-08-17T07:59:27.228Z,3.03
2022-08-17T08:02:40.266Z,3.00
2022-08-17T08:05:29.946Z,2.80
2022-08-17T08:08:50.444Z,2.60
2022-08-17T08:11:43.748Z,3.40
2022-08-17T08:24:36.088Z,2.90
2022-08-17T08:27:32.831Z,3.00
2022-08-17T08:30:24.813Z,2.65
2022-08-17T08:33:26.023Z,2.75
2022-08-17T08:37:13.003Z,3.10
2022-08-17T08:39:55.785Z,3.00
2022-08-17T08:43:05.694Z,3.00
2022-08-17T08:46:06.462Z,3.00
2022-08-17T08:49:14.965Z,2.88
2022-08-17T08:52:29.051Z,2.85
2022-08-17T08:55:39.011Z,2.90
2022-08-17T08:58:54.593Z,3.25
2022-08-17T09:01:59.851Z,3.50
2022-08-17T09:05:10.541Z,2.67
2022-08-17T09:10:22.447Z,3.10
2022-08-17T09:13:54.339Z,3.00
2022-08-17T09:17:14.923Z,3.17
2022-08-17T09:20:09.630Z,2.90
2022-08-17T09:22:56.951Z,3.25
2022-08-17T09:25:42.341Z,3.08
2022-08-17T09:28:31.889Z,3.10
2022-08-17T09:31:33.382Z,3.35
2022-08-17T09:34:17.874Z,3.17
2022-08-17T09:37:45.103Z,3.33
2022-08-17T09:40:30.933Z,3.10
2022-08-17T09:43:11.229Z,3.00
2022-08-17T09:46:01.443Z,2.72
2022-08-17T09:48:40.661Z,3.08
2022-08-17T09:51:27.655Z,3.00
2022-08-17T09:57:28.622Z,2.75
2022-08-17T10:00:20.156Z,2.70
2022-08-17T10:03:05.651Z,3.42
2022-08-17T10:05:57.977Z,3.13
2022-08-17T10:08:59.541Z,2.83
2022-08-17T10:12:17.125Z,2.83
2022-08-17T10:15:08.134Z,3.15
2022-08-17T10:18:07.385Z,3.00
2022-08-17T10:21:23.445Z,3.28
2022-08-17T10:25:21.727Z,3.17
2022-08-17T10:28:19.701Z,3.13
2022-08-17T10:37:24.262Z,2.70
2022-08-17T10:40:30.472Z,3.20
2022-08-17T10:43:18.611Z,2.60
2022-08-17T10:54:42.526Z,3.10
2022-08-17T10:57:52.352Z,3.20
2022-08-17T11:03:43.090Z,2.70
2022-08-17T11:10:18.928Z,2.80
2022-08-17T11:13:06.135Z,2.80
2022-08-17T11:15:57.593Z,2.85
2022-08-17T11:19:00.462Z,2.67
2022-08-17T11:21:49.048Z,2.95
2022-08-17T11:24:39.784Z,2.67
2022-08-17T11:27:29.960Z,2.85
2022-08-17T11:30:14.876Z,2.83
2022-08-17T11:33:08.072Z,3.78
2022-08-17T11:36:11.562Z,3.28
2022-08-17T11:39:04.740Z,2.80
2022-08-17T11:41:48.835Z,3.08
2022-08-17T11:44:42.726Z,2.85
2022-08-17T11:48:16.405Z,3.10
2022-08-17T11:51:27.598Z,2.58
2022-08-17T11:54:32.720Z,3.47
2022-08-17T11:57:24.735Z,2.80
2022-08-17T11:59:59.931Z,3.15
2022-08-17T12:02:31.721Z,2.50
2022-08-17T12:05:17.123Z,2.45
2022-08-17T12:07:59.779Z,2.72
2022-08-17T12:10:32.126Z,2.50
2022-08-17T12:13:11.274Z,3.13
2022-08-17T12:15:42.444Z,3.00
2022-08-17T12:18:09.822Z,3.40
2022-08-17T12:20:41.952Z,2.65
2022-08-17T12:23:24.222Z,3.22
2022-08-17T12:26:00.425Z,2.83
2022-08-17T12:28:27.725Z,2.90
2022-08-17T12:30:57.138Z,3.10
2022-08-17T12:33:28.789Z,3.05
2022-08-17T12:35:59.685Z,2.65
2022-08-17T12:38:32.447Z,3.38
2022-08-17T12:41:20.936Z,2.63
2022-08-17T12:43:56.279Z,8.07
2022-08-17T12:46:23.654Z,3.28
2022-08-17T12:48:58.932Z,3.10
2022-08-17T12:51:29.360Z,2.75
2022-08-17T12:53:56.790Z,3.33
2022-08-17T12:56:24.148Z,2.80
2022-08-17T12:58:56.611Z,3.15
2022-08-17T13:01:25.597Z,2.75
2022-08-17T13:03:54.754Z,2.83
2022-08-17T13:06:33.955Z,3.03
2022-08-17T13:09:15.704Z,2.65
2022-08-17T13:12:05.149Z,2.58
2022-08-17T13:14:40.408Z,2.45
2022-08-17T13:17:16.531Z,2.65
2022-08-17T13:19:56.712Z,3.08
2022-08-17T13:22:32.346Z,3.17
2022-08-17T13:25:12.771Z,2.83
2022-08-17T13:27:49.971Z,2.83
2022-08-17T13:30:27.597Z,2.90
2022-08-17T13:32:59.597Z,2.72
2022-08-17T13:35:49.894Z,2.80
2022-08-17T13:38:43.986Z,3.55
2022-08-17T13:41:38.069Z,2.72
2022-08-17T13:44:32.322Z,2.80
2022-08-17T13:47:07.153Z,2.95
2022-08-17T13:49:48.909Z,3.10
2022-08-17T13:52:42.999Z,2.45
2022-08-17T13:55:24.675Z,3.10
2022-08-17T13:58:07.109Z,2.95
2022-08-17T14:00:42.251Z,2.72
2022-08-17T14:03:16.277Z,2.70
2022-08-17T14:05:48.685Z,3.22
2022-08-17T14:08:22.701Z,3.00
2022-08-17T14:10:53.693Z,3.10
2022-08-17T14:13:26.533Z,3.00
2022-08-17T14:15:59.719Z,3.20
2022-08-17T14:18:55.992Z,2.60
2022-08-17T14:21:16.793Z,3.25
2022-08-17T14:23:54.558Z,3.30
2022-08-17T14:26:31.438Z,3.10
2022-08-17T14:29:03.215Z,3.30
2022-08-17T14:31:36.790Z,3.40
2022-08-17T14:34:06.559Z,3.22
2022-08-17T14:36:41.642Z,3.33
2022-08-17T14:39:16.266Z,3.13
2022-08-17T14:41:44.240Z,2.72
2022-08-17T14:44:12.658Z,2.88
2022-08-17T14:46:41.019Z,3.00
2022-08-17T14:49:12.672Z,3.00
2022-08-17T14:51:44.493Z,2.95
2022-08-17T14:54:32.993Z,3.63
2022-08-17T14:57:22.440Z,2.75
2022-08-17T14:59:50.672Z,3.30
2022-08-17T15:02:29.187Z,3.03
2022-08-17T15:05:01.992Z,3.30
2022-08-17T15:07:32.455Z,3.00
2022-08-17T15:10:03.057Z,2.70
2022-08-17T15:12:34.588Z,3.25
2022-08-17T15:15:04.771Z,3.95
2022-08-17T15:17:54.739Z,2.70
2022-08-17T15:20:21.990Z,3.50
2022-08-17T15:22:49.984Z,3.90
2022-08-17T15:25:17.818Z,3.10
2022-08-17T15:27:45.237Z,7.80
2022-08-17T15:30:13.167Z,12.05
2022-08-17T15:32:50.646Z,4.57
2022-08-17T15:35:27.848Z,3.60
2022-08-17T15:37:55.997Z,2.72
2022-08-17T15:40:23.296Z,3.25
2022-08-17T15:42:51.304Z,3.40
2022-08-17T15:45:22.615Z,2.80
2022-08-17T15:47:50.637Z,2.95
2022-08-17T15:50:18.547Z,2.80
2022-08-17T15:52:48.062Z,3.30
2022-08-17T15:55:16.589Z,3.13
2022-08-17T15:57:45.450Z,3.25
2022-08-17T16:00:12.899Z,2.70
2022-08-17T16:03:45.050Z,2.70
2022-08-17T16:05:31.275Z,2.90
2022-08-17T16:07:59.858Z,2.72
2022-08-17T16:10:35.228Z,3.10
2022-08-17T16:13:03.815Z,2.80
2022-08-17T16:15:34.364Z,2.85
2022-08-17T16:18:02.753Z,3.03
2022-08-17T16:20:30.844Z,3.20
2022-08-17T16:22:58.186Z,2.78
2022-08-17T16:25:52.551Z,2.67
2022-08-17T16:28:16.184Z,2.90
2022-08-17T16:30:44.253Z,2.47
2022-08-17T16:33:12.096Z,3.47
2022-08-17T16:35:42.099Z,3.33
2022-08-17T16:38:09.733Z,3.60
2022-08-17T16:40:38.535Z,3.00
2022-08-17T16:43:10.824Z,3.08
2022-08-17T16:45:43.183Z,3.13
2022-08-17T16:48:10.603Z,3.33
2022-08-17T16:50:38.349Z,3.20
2022-08-17T16:53:06.751Z,2.90
2022-08-17T16:55:35.820Z,3.20
2022-08-17T16:58:04.558Z,2.80
2022-08-17T17:00:33.512Z,3.20
2022-08-17T17:03:19.965Z,3.22
2022-08-17T17:06:07.314Z,2.95
2022-08-17T17:08:35.072Z,3.10
2022-08-17T17:11:16.538Z,2.90
2022-08-17T17:13:50.433Z,3.53
2022-08-17T17:16:22.338Z,3.17
2022-08-17T17:18:52.736Z,3.05
2022-08-17T17:21:21.135Z,3.22
2022-08-17T17:23:55.883Z,3.20
2022-08-17T17:26:41.835Z,3.33
2022-08-17T17:29:21.136Z,3.70
2022-08-17T17:32:14.066Z,3.17
2022-08-17T17:34:50.957Z,3.33
2022-08-17T17:37:21.224Z,3.60
2022-08-17T17:39:53.888Z,2.53
2022-08-17T17:42:25.241Z,3.40
2022-08-17T17:45:00.410Z,3.10
2022-08-17T17:47:29.657Z,3.00
2022-08-17T17:49:57.060Z,3.30
2022-08-17T17:52:24.523Z,2.95
2022-08-17T17:55:10.764Z,2.72
2022-08-17T17:57:58.336Z,3.30
2022-08-17T18:00:25.797Z,3.13
2022-08-17T18:03:02.472Z,3.47
2022-08-17T18:05:53.121Z,3.30
2022-08-17T18:08:40.389Z,3.42
2022-08-17T18:11:25.387Z,3.30
2022-08-17T18:14:04.990Z,3.65
2022-08-17T18:16:35.902Z,3.00
2022-08-17T18:19:03.214Z,3.28
2022-08-17T18:21:38.151Z,3.00
2022-08-17T18:24:07.517Z,3.83
2022-08-17T18:26:45.388Z,3.50
2022-08-17T18:29:34.639Z,3.90
2022-08-17T18:32:19.701Z,3.63
2022-08-17T18:34:48.970Z,3.67
2022-08-17T18:37:30.786Z,4.13
2022-08-17T18:39:58.126Z,6.55
2022-08-17T18:42:26.833Z,4.28
2022-08-17T18:44:55.571Z,3.95
2022-08-17T18:47:23.141Z,4.38
2022-08-17T18:50:10.827Z,4.07
2022-08-17T18:52:38.190Z,3.95
2022-08-17T18:55:05.680Z,3.67
2022-08-17T18:57:53.450Z,3.88
2022-08-17T19:00:33.583Z,3.40
2022-08-17T19:03:02.620Z,3.90
2022-08-17T19:05:38.333Z,4.38
2022-08-17T19:08:24.206Z,4.25
2022-08-17T19:11:07.006Z,3.90
2022-08-17T19:13:40.308Z,3.72
2022-08-17T19:16:23.687Z,3.92
2022-08-17T19:19:00.112Z,3.58
2022-08-17T19:21:38.868Z,4.22
2022-08-17T19:24:10.401Z,3.88
2022-08-17T19:26:54.747Z,4.07
2022-08-17T19:29:23.099Z,4.60
2022-08-17T19:31:50.820Z,4.30
2022-08-17T19:34:30.149Z,4.35
2022-08-17T19:37:21.046Z,4.45
2022-08-17T19:40:07.146Z,3.95
2022-08-17T19:42:39.612Z,4.25
2022-08-17T19:45:21.437Z,4.93
2022-08-17T19:47:55.335Z,4.10
2022-08-17T19:50:30.881Z,4.47
2022-08-17T19:55:31.780Z,4.47
2022-08-17T19:58:17.899Z,4.40
2022-08-17T20:00:49.530Z,4.28
2022-08-17T20:03:22.750Z,4.57
2022-08-17T20:06:11.913Z,4.53
2022-08-17T20:08:41.865Z,4.97
2022-08-17T20:11:11.352Z,4.68
2022-08-17T20:13:49.171Z,4.30
2022-08-17T20:16:17.938Z,4.30
2022-08-17T20:19:01.932Z,4.70
2022-08-17T20:21:51.953Z,4.60
2022-08-17T20:24:21.375Z,4.28
2022-08-17T20:26:59.990Z,4.63
2022-08-17T20:29:39.927Z,5.05
2022-08-17T20:32:17.591Z,4.82
2022-08-17T20:34:47.555Z,4.57
2022-08-17T20:37:14.968Z,4.70
2022-08-17T20:39:42.457Z,4.65
2022-08-17T20:42:09.808Z,4.82
2022-08-17T20:44:39.099Z,4.70
2022-08-17T20:47:18.096Z,4.93
2022-08-17T20:49:45.572Z,4.60
2022-08-17T20:52:15.584Z,5.28
2022-08-17T20:54:46.783Z,4.50
2022-08-17T20:57:32.541Z,5.00
2022-08-17T21:00:14.614Z,4.68
2022-08-17T21:02:44.501Z,4.78
2022-08-17T21:05:44.224Z,5.07
2022-08-17T21:08:15.126Z,4.82
2022-08-17T21:10:45.684Z,5.18
2022-08-17T21:13:15.281Z,5.00
2022-08-17T21:15:43.031Z,5.20
2022-08-17T21:18:26.266Z,4.80
2022-08-17T21:20:59.733Z,5.15
2022-08-17T21:23:40.378Z,4.85
2022-08-17T21:26:07.927Z,5.20
2022-08-17T21:29:00.265Z,4.93
2022-08-17T21:31:32.062Z,4.65
2022-08-17T21:34:16.930Z,4.50
2022-08-17T21:36:45.005Z,5.03
2022-08-17T21:39:14.348Z,4.40
2022-08-17T21:41:48.693Z,4.70
2022-08-17T21:44:19.326Z,4.93
2022-08-17T21:46:49.657Z,5.03
2022-08-17T21:49:19.356Z,5.30
2022-08-17T21:51:53.884Z,4.90
2022-08-17T21:54:34.050Z,4.95
2022-08-17T21:57:02.468Z,4.80
2022-08-17T21:59:31.817Z,5.40
2022-08-17T22:02:00.760Z,4.85
2022-08-17T22:04:29.219Z,5.40
2022-08-17T22:06:57.924Z,4.68
2022-08-17T22:09:34.308Z,4.43
2022-08-17T22:12:04.604Z,4.55
2022-08-17T22:14:53.273Z,4.93
2022-08-17T22:17:24.095Z,4.63
2022-08-17T22:19:53.487Z,4.93
2022-08-17T22:22:22.355Z,5.03
2022-08-17T22:24:58.086Z,5.40
2022-08-17T22:27:43.965Z,5.30
2022-08-17T22:30:27.679Z,4.80
2022-08-17T22:32:55.586Z,5.00
2022-08-17T22:35:28.972Z,5.40
2022-08-17T22:37:57.020Z,5.00
2022-08-17T22:40:32.008Z,4.97
2022-08-17T22:45:29.866Z,5.53
2022-08-17T22:47:58.970Z,4.63
2022-08-17T22:50:28.201Z,5.65
2022-08-17T22:53:17.130Z,4.78
2022-08-17T22:56:13.010Z,5.15
2022-08-17T22:59:12.802Z,4.93
2022-08-17T23:01:41.015Z,5.40
2022-08-17T23:04:08.320Z,4.95
2022-08-17T23:06:37.440Z,4.80
2022-08-17T23:09:05.943Z,5.05
2022-08-17T23:11:47.780Z,5.22
2022-08-17T23:14:18.484Z,4.88
2022-08-17T23:16:45.940Z,4.80
2022-08-17T23:19:15.493Z,4.63
2022-08-17T23:21:46.577Z,5.20
2022-08-17T23:24:25.464Z,5.03
2022-08-17T23:26:53.041Z,5.25
2022-08-17T23:29:21.591Z,5.35
2022-08-17T23:31:49.343Z,5.13
2022-08-17T23:34:18.531Z,5.45
2022-08-17T23:36:52.919Z,5.68
2022-08-17T23:39:27.527Z,5.45
2022-08-17T23:41:56.490Z,5.50
2022-08-17T23:44:24.043Z,6.03
2022-08-17T23:46:52.523Z,5.43
2022-08-17T23:49:20.397Z,5.20
2022-08-17T23:51:48.585Z,5.72
2022-08-17T23:54:17.261Z,6.05
2022-08-17T23:56:47.709Z,6.10
2022-08-17T23:59:15.798Z,4.90
